Time;durP1;ratioP1;P1;durP2;ratioP2;P2;SDS_P1;SDS_P2;PMS_P1;PMS_P2;Temp;Humidity;BMP_temperature;BMP_pressure;BME280_temperature;BME280_humidity;BME280_pressure;Samples;Min_cycle;Max_cycle;Signal;HPM_P1;HPM_P2
2023/01/03 00:02:06;;;;;;;5.28;3.22;;;;;;;8.30;52.40;96185.19;4990248;28;20195;-57
2023/01/03 00:04:33;;;;;;;5.47;4.03;;;;;;;7.53;53.98;96180.06;4989459;28;20257;-55
2023/01/03 00:07:00;;;;;;;2.17;2.00;;;;;;;8.23;53.22;96184.38;4990717;28;20198;-61
2023/01/03 00:09:27;;;;;;;9.43;3.65;;;;;;;8.50;51.42;96179.84;4989132;28;20268;-59
2023/01/03 00:14:41;;;;;;;5.50;4.97;;;;;;;8.75;50.80;96176.25;4989548;28;20206;-53
2023/01/03 00:17:10;;;;;;;4.57;3.33;;;;;;;8.44;51.51;96173.66;4990428;28;20237;-57
2023/01/03 00:19:41;;;;;;;1.55;1.45;;;;;;;8.20;51.63;96176.97;4988817;28;20209;-55
2023/01/03 00:22:10;;;;;;;1.10;1.08;;;;;;;7.84;51.98;96176.75;4977594;28;20198;-57
2023/01/03 00:24:37;;;;;;;2.60;2.38;;;;;;;7.95;52.18;96173.50;4988520;28;20420;-60
2023/01/03 00:27:04;;;;;;;5.10;2.70;;;;;;;7.98;52.09;96180.91;4989929;28;20269;-58
2023/01/03 00:29:31;;;;;;;1.33;1.23;;;;;;;7.17;54.31;96180.53;4988766;28;20242;-57
2023/01/03 00:31:58;;;;;;;1.65;1.55;;;;;;;7.43;52.96;96178.88;4989892;28;20230;-56
2023/01/03 00:34:25;;;;;;;4.55;4.03;;;;;;;7.39;53.86;96190.72;4986992;28;20680;-60
2023/01/03 00:36:52;;;;;;;8.45;3.83;;;;;;;7.21;54.03;96180.91;4987923;28;20275;-59
2023/01/03 00:39:20;;;;;;;1.65;1.52;;;;;;;7.44;54.22;96185.69;4988626;28;20226;-54
2023/01/03 00:41:47;;;;;;;3.70;2.95;;;;;;;7.25;54.54;96186.53;4990349;28;20202;-57
2023/01/03 00:44:15;;;;;;;4.55;1.35;;;;;;;7.11;54.63;96181.34;4988933;28;20234;-57
2023/01/03 00:46:42;;;;;;;5.25;3.70;;;;;;;7.19;55.43;96183.72;4990143;28;20272;-56
2023/01/03 00:49:09;;;;;;;7.90;5.00;;;;;;;6.68;56.36;96180.13;4989281;28;20652;-60
2023/01/03 00:51:38;;;;;;;3.17;2.88;;;;;;;7.23;56.04;96178.91;4989674;28;20261;-56
2023/01/03 00:54:07;;;;;;;3.78;2.85;;;;;;;7.21;54.63;96180.13;4988162;28;20190;-61
2023/01/03 00:56:40;;;;;;;1.75;1.65;;;;;;;7.10;55.33;96179.72;4989502;28;20285;-60
2023/01/03 00:59:07;;;;;;;7.93;3.38;;;;;;;7.05;54.87;96176.94;4988791;28;20186;-53
2023/01/03 01:01:41;;;;;;;1.17;0.95;;;;;;;8.17;52.67;96166.97;4988702;28;20282;-57
2023/01/03 01:04:21;;;;;;;3.63;1.73;;;;;;;7.75;52.58;96167.56;4988380;28;20277;-56
2023/01/03 01:07:00;;;;;;;3.55;3.10;;;;;;;7.79;52.62;96166.91;4989380;28;20214;-60
2023/01/03 01:09:35;;;;;;;0.75;0.75;;;;;;;7.93;51.67;96165.06;4980949;28;20208;-56
2023/01/03 01:12:04;;;;;;;2.08;1.95;;;;;;;7.94;51.74;96166.66;4989120;28;20287;-58
2023/01/03 01:14:32;;;;;;;2.35;1.55;;;;;;;8.24;50.63;96157.31;4988707;28;20204;-57
2023/01/03 01:17:03;;;;;;;4.22;1.38;;;;;;;7.65;51.41;96162.75;4989354;28;20377;-53
2023/01/03 01:19:36;;;;;;;0.90;0.85;;;;;;;7.81;52.64;96159.69;4988620;28;20814;-52
2023/01/03 01:22:04;;;;;;;3.88;2.38;;;;;;;7.83;52.44;96164.69;4988876;28;20241;-55
2023/01/03 01:24:31;;;;;;;3.50;3.20;;;;;;;7.91;51.46;96156.63;4988196;28;20365;-56
2023/01/03 01:26:58;;;;;;;2.63;1.67;;;;;;;7.99;51.21;96153.81;4983646;28;20226;-51
2023/01/03 01:29:25;;;;;;;2.78;2.30;;;;;;;7.89;51.31;96158.66;4987579;28;20333;-57
2023/01/03 01:31:52;;;;;;;4.50;2.70;;;;;;;7.94;50.89;96158.81;4988890;28;20586;-56
2023/01/03 01:34:19;;;;;;;1.55;1.17;;;;;;;7.88;50.89;96151.84;4988372;28;20656;-50
2023/01/03 01:36:47;;;;;;;0.22;0.22;;;;;;;7.89;51.29;96153.44;4989365;28;20297;-50
2023/01/03 01:39:23;;;;;;;1.45;0.85;;;;;;;7.56;52.12;96157.97;4988156;28;20673;-57
2023/01/03 01:45:00;;;;;;;2.60;1.73;;;;;;;7.67;51.60;96155.53;4987856;28;20190;-57
2023/01/03 01:47:43;;;;;;;2.58;1.75;;;;;;;8.03;49.62;96144.53;4988906;28;20198;-57
2023/01/03 01:50:34;;;;;;;0.68;0.68;;;;;;;7.58;51.15;96154.16;4988339;28;20206;-58
2023/01/03 01:53:14;;;;;;;13.55;3.25;;;;;;;7.82;50.12;96152.66;4992633;28;20355;-61
2023/01/03 01:55:42;;;;;;;4.57;2.13;;;;;;;7.74;50.51;96145.06;4992299;28;20206;-56
2023/01/03 01:58:09;;;;;;;12.73;4.22;;;;;;;7.73;50.50;96138.25;4993081;28;20256;-60
2023/01/03 02:00:38;;;;;;;8.98;5.88;;;;;;;7.76;50.66;96140.44;4991851;28;20257;-55
2023/01/03 02:03:06;;;;;;;4.10;3.70;;;;;;;7.85;49.86;96136.59;4992693;28;20771;-57
2023/01/03 02:05:35;;;;;;;4.18;3.67;;;;;;;7.73;50.81;96143.47;4991686;28;20569;-56
2023/01/03 02:08:02;;;;;;;3.78;2.72;;;;;;;7.72;50.48;96140.06;4992962;28;20202;-52
2023/01/03 02:10:38;;;;;;;35.08;4.72;;;;;;;7.65;50.26;96147.09;4991430;28;20200;-58
2023/01/03 02:13:21;;;;;;;1.92;1.23;;;;;;;7.70;50.23;96144.66;4992627;28;20654;-54
2023/01/03 02:16:21;;;;;;;2.92;2.00;;;;;;;7.48;50.11;96139.97;4989488;28;20191;-57
2023/01/03 02:19:24;;;;;;;4.75;2.53;;;;;;;7.69;50.58;96144.88;4991669;28;20194;-57
2023/01/03 02:22:24;;;;;;;9.23;5.90;;;;;;;7.77;49.74;96139.44;4940103;29;20199;-54
2023/01/03 02:25:22;;;;;;;6.50;5.05;;;;;;;7.85;49.72;96131.38;4987643;28;20198;-59
2023/01/03 02:28:23;;;;;;;19.05;3.80;;;;;;;8.02;49.89;96137.72;4988004;28;20203;-57
2023/01/03 02:30:57;;;;;;;4.80;3.90;;;;;;;7.65;50.04;96130.66;4990601;28;20607;-59
2023/01/03 02:33:46;;;;;;;5.68;5.00;;;;;;;7.54;50.12;96118.25;4991983;28;20246;-52
2023/01/03 02:36:41;;;;;;;4.90;4.40;;;;;;;7.48;50.27;96139.97;4990847;28;20206;-56
2023/01/03 02:39:34;;;;;;;2.10;2.00;;;;;;;7.51;49.88;96134.31;4989890;28;20300;-53
2023/01/03 02:45:04;;;;;;;2.13;1.65;;;;;;;7.64;49.74;96135.09;4979329;28;20257;-57
2023/01/03 02:47:55;;;;;;;1.75;1.65;;;;;;;7.69;49.60;96132.66;4991681;28;20293;-58
2023/01/03 02:50:25;;;;;;;2.85;2.67;;;;;;;8.00;48.64;96140.53;4991484;28;20764;-57
2023/01/03 02:52:56;;;;;;;4.72;3.97;;;;;;;7.99;49.02;96128.47;4991991;28;20292;-57
2023/01/03 02:55:27;;;;;;;4.57;2.75;;;;;;;6.39;51.71;96114.63;4991263;28;20203;-59
2023/01/03 02:58:00;;;;;;;7.43;5.55;;;;;;;7.76;49.29;96127.38;4992095;28;20230;-59
2023/01/03 03:00:31;;;;;;;4.40;3.45;;;;;;;7.57;49.26;96133.50;4991186;28;20661;-54
2023/01/03 03:03:05;;;;;;;1.15;1.15;;;;;;;7.62;49.87;96125.84;4991335;28;20791;-58
2023/01/03 03:05:38;;;;;;;11.00;4.47;;;;;;;7.36;49.61;96125.94;4991701;28;20207;-61
2023/01/03 03:08:06;;;;;;;2.13;1.60;;;;;;;7.34;49.89;96130.53;4991965;28;20218;-56
2023/01/03 03:13:35;;;;;;;0.65;0.63;;;;;;;7.17;50.20;96123.19;4991425;28;20281;-53
2023/01/03 03:16:11;;;;;;;3.63;3.33;;;;;;;7.13;50.64;96132.41;4990932;28;20201;-55
2023/01/03 03:18:49;;;;;;;2.42;2.00;;;;;;;7.82;49.72;96131.78;4991758;28;20281;-56
2023/01/03 03:28:33;;;;;;;1.42;1.38;;;;;;;6.02;52.74;96132.38;4978481;28;20657;-55
2023/01/03 03:29:47;;;;;;;4.60;3.30;;;;;;;7.67;49.57;96136.47;4990325;28;20325;-55
2023/01/03 03:32:15;;;;;;;1.70;1.60;;;;;;;7.86;48.23;96128.56;4991233;28;20272;-59
2023/01/03 03:34:44;;;;;;;3.65;2.53;;;;;;;8.27;47.60;96128.16;4990406;28;20199;-55
2023/01/03 03:37:17;;;;;;;5.22;4.28;;;;;;;8.14;47.17;96120.34;4991160;28;20297;-58
2023/01/03 03:45:43;;;;;;;14.30;7.85;;;;;;;7.37;48.63;96140.59;4990616;28;20210;-56
2023/01/03 03:48:17;;;;;;;5.35;4.95;;;;;;;7.03;49.07;96139.84;4978416;28;20202;-56
2023/01/03 03:50:53;;;;;;;14.65;9.82;;;;;;;7.42;47.42;96138.97;4990110;28;20759;-58
2023/01/03 03:53:24;;;;;;;9.10;8.18;;;;;;;7.87;48.03;96140.59;4990790;28;20225;-57
2023/01/03 03:56:09;;;;;;;14.30;10.02;;;;;;;7.96;47.71;96138.53;4990231;28;20642;-53
2023/01/03 03:58:42;;;;;;;11.70;8.52;;;;;;;7.51;48.54;96129.09;4990747;28;20939;-60
2023/01/03 04:01:15;;;;;;;6.22;5.65;;;;;;;7.75;48.43;96136.25;4990392;28;20293;-57
2023/01/03 04:03:45;;;;;;;13.32;7.93;;;;;;;8.21;47.83;96132.38;4990702;28;20230;-54
2023/01/03 04:06:21;;;;;;;9.80;4.57;;;;;;;7.17;49.33;96138.81;4990102;28;20203;-56
2023/01/03 04:08:49;;;;;;;16.42;8.10;;;;;;;6.49;49.65;96138.47;4990801;28;20639;-59
2023/01/03 04:11:16;;;;;;;7.78;7.00;;;;;;;7.39;49.01;96125.53;4989969;28;20226;-55
2023/01/03 04:13:43;;;;;;;9.48;6.78;;;;;;;7.15;49.17;96122.56;4989689;28;20219;-58
2023/01/03 04:16:10;;;;;;;19.23;7.22;;;;;;;7.34;48.43;96128.75;4989788;28;20665;-56
2023/01/03 04:18:37;;;;;;;8.32;4.63;;;;;;;7.91;47.27;96131.34;4971782;28;20206;-57
2023/01/03 04:21:03;;;;;;;31.95;7.40;;;;;;;6.82;48.71;96139.28;4981143;28;20654;-56
2023/01/03 04:23:30;;;;;;;10.48;5.47;;;;;;;6.12;50.88;96142.41;4990380;28;20201;-57
2023/01/03 04:25:57;;;;;;;8.65;7.18;;;;;;;6.46;51.11;96139.66;4989072;28;20626;-57
2023/01/03 04:28:24;;;;;;;10.10;5.25;;;;;;;6.12;51.24;96142.41;4990328;28;20202;-61
2023/01/03 04:30:51;;;;;;;24.70;13.48;;;;;;;6.03;51.47;96141.00;4989718;28;20620;-60
2023/01/03 04:33:17;;;;;;;5.82;5.40;;;;;;;6.59;50.30;96144.88;4990139;28;20795;-53
2023/01/03 04:35:44;;;;;;;11.52;8.60;;;;;;;6.83;49.50;96131.25;4989783;28;20577;-55
2023/01/03 04:38:12;;;;;;;10.70;7.40;;;;;;;6.15;50.37;96149.81;4977354;28;20289;-59
2023/01/03 04:40:38;;;;;;;23.55;10.20;;;;;;;6.25;50.37;96152.06;4989663;28;20218;-58
2023/01/03 04:45:50;;;;;;;20.08;12.00;;;;;;;6.09;51.26;96155.84;4989184;28;20199;-58
2023/01/03 04:48:17;;;;;;;23.02;13.65;;;;;;;6.37;49.86;96163.50;4989491;28;20202;-57
2023/01/03 04:50:52;;;;;;;7.88;6.30;;;;;;;6.32;50.17;96164.09;4988859;28;20791;-55
2023/01/03 04:53:20;;;;;;;13.85;7.60;;;;;;;6.15;50.28;96174.06;4989981;28;20225;-56
2023/01/03 04:55:48;;;;;;;17.98;11.73;;;;;;;6.14;50.10;96166.44;4988877;28;20298;-61
2023/01/03 04:58:15;;;;;;;14.60;9.88;;;;;;;6.18;50.19;96173.66;4989705;28;20244;-56
2023/01/03 05:00:42;;;;;;;16.33;6.72;;;;;;;5.93;50.47;96174.41;4987623;28;20233;-59
2023/01/03 05:03:10;;;;;;;20.83;10.43;;;;;;;5.66;50.73;96177.84;4979598;28;20487;-59
2023/01/03 05:05:37;;;;;;;11.20;9.57;;;;;;;5.69;50.79;96177.47;4976066;28;20209;-58
2023/01/03 05:08:09;;;;;;;16.02;12.50;;;;;;;5.37;51.71;96178.09;4986066;28;20669;-53
2023/01/03 05:10:37;;;;;;;2.83;2.60;;;;;;;5.31;51.50;96186.69;4989533;28;20202;-58
2023/01/03 05:13:04;;;;;;;12.15;8.65;;;;;;;5.32;51.58;96185.69;4989564;28;20222;-57
2023/01/03 05:15:34;;;;;;;16.85;10.48;;;;;;;5.50;51.24;96180.78;4988553;28;20654;-53
2023/01/03 05:18:02;;;;;;;15.68;8.85;;;;;;;5.52;51.36;96192.59;4989838;28;20198;-52
2023/01/03 05:26:09;;;;;;;11.18;9.13;;;;;;;5.73;50.94;96189.09;5003749;28;20556;-53
2023/01/03 05:28:36;;;;;;;5.60;5.10;;;;;;;5.60;50.72;96184.63;4989218;28;20195;-62
2023/01/03 05:31:02;;;;;;;11.00;4.97;;;;;;;5.44;50.99;96199.75;4988802;28;20332;-57
2023/01/03 05:33:29;;;;;;;9.27;6.78;;;;;;;5.73;50.74;96194.31;4989424;28;20224;-57
2023/01/03 05:35:57;;;;;;;14.18;9.73;;;;;;;6.02;50.13;96183.66;5003821;28;20591;-56
2023/01/03 05:38:24;;;;;;;7.10;6.43;;;;;;;5.97;49.83;96186.00;4989188;28;20215;-60
2023/01/03 05:40:51;;;;;;;33.13;12.57;;;;;;;6.07;49.43;96186.44;4988254;28;20234;-58
2023/01/03 05:43:18;;;;;;;10.02;7.03;;;;;;;6.46;48.59;96173.50;4974098;28;20206;-60
2023/01/03 05:45:51;;;;;;;5.95;5.38;;;;;;;6.43;48.64;96176.53;4986415;28;20213;-60
2023/01/03 05:48:20;;;;;;;11.45;8.30;;;;;;;6.32;49.34;96179.69;4987365;28;20203;-55
2023/01/03 05:50:48;;;;;;;7.32;6.60;;;;;;;6.04;49.48;96182.44;4986143;28;20305;-54
2023/01/03 05:53:15;;;;;;;7.68;5.85;;;;;;;6.07;49.67;96178.66;4987139;28;20224;-60
2023/01/03 05:55:42;;;;;;;3.35;3.05;;;;;;;6.20;48.41;96151.84;4987567;28;20222;-56
2023/01/03 05:58:11;;;;;;;9.68;5.20;;;;;;;6.43;49.08;96194.75;4988953;28;20230;-55
2023/01/03 06:00:38;;;;;;;11.77;9.07;;;;;;;6.59;48.80;96180.53;4989052;28;20288;-58
2023/01/03 06:03:05;;;;;;;8.18;7.35;;;;;;;6.54;48.33;96181.13;4988501;28;20198;-56
2023/01/03 06:05:32;;;;;;;4.78;4.38;;;;;;;6.48;47.94;96196.78;4988227;28;20197;-56
2023/01/03 06:08:01;;;;;;;9.32;8.23;;;;;;;6.81;47.25;96192.38;4989011;28;20699;-60
2023/01/03 06:10:28;;;;;;;13.50;8.77;;;;;;;5.49;50.59;96203.38;4988389;28;20585;-56
2023/01/03 06:12:55;;;;;;;10.55;7.90;;;;;;;5.47;50.63;96204.56;4988713;28;20317;-59
2023/01/03 06:15:23;;;;;;;4.15;3.75;;;;;;;5.46;50.66;96213.34;4988306;28;20198;-56
2023/01/03 06:17:58;;;;;;;4.40;4.00;;;;;;;5.54;50.56;96215.81;4988857;28;20210;-57
2023/01/03 06:20:26;;;;;;;8.93;5.57;;;;;;;5.59;50.61;96218.63;4988700;28;20206;-57
2023/01/03 06:22:53;;;;;;;5.05;4.07;;;;;;;5.34;51.55;96214.88;4988764;28;20245;-59
2023/01/03 06:25:21;;;;;;;6.95;4.40;;;;;;;5.65;51.24;96223.06;4975656;28;20210;-60
2023/01/03 06:27:48;;;;;;;4.63;4.00;;;;;;;6.81;49.41;96206.19;4988712;28;20213;-60
2023/01/03 06:30:15;;;;;;;6.55;4.80;;;;;;;7.18;48.15;96203.00;4988406;28;20664;-58
2023/01/03 06:32:43;;;;;;;7.38;3.92;;;;;;;7.07;48.05;96211.44;4987529;28;20242;-54
2023/01/03 06:35:10;;;;;;;1.88;1.77;;;;;;;7.37;47.36;96205.78;4986739;28;20195;-59
2023/01/03 06:37:37;;;;;;;4.93;4.10;;;;;;;7.47;47.40;96199.13;4988517;28;20630;-58
2023/01/03 06:40:05;;;;;;;12.57;5.80;;;;;;;6.48;49.90;96205.34;4978182;28;20195;-57
2023/01/03 06:42:38;;;;;;;8.90;4.90;;;;;;;7.09;47.72;96199.00;4976713;28;20203;-57
2023/01/03 06:53:27;;;;;;;9.13;4.97;;;;;;;5.31;52.21;96228.28;4992354;28;20218;-60
2023/01/03 06:55:54;;;;;;;14.07;6.28;;;;;;;4.69;54.10;96223.78;4991636;28;20626;-62
2023/01/03 06:58:23;;;;;;;2.50;2.33;;;;;;;4.57;54.73;96233.06;4992221;28;20198;-60
2023/01/03 07:00:51;;;;;;;2.92;2.67;;;;;;;5.04;53.50;96232.47;4991094;28;20191;-58
2023/01/03 07:03:18;;;;;;;4.45;2.85;;;;;;;5.15;53.56;96235.34;4991989;28;20210;-55
2023/01/03 07:05:44;;;;;;;1.58;1.48;;;;;;;5.04;53.52;96241.06;4991388;28;20285;-57
2023/01/03 07:08:11;;;;;;;0.68;0.68;;;;;;;5.58;53.14;96243.03;4991806;28;20190;-54
2023/01/03 07:10:39;;;;;;;7.00;4.20;;;;;;;5.42;52.63;96233.72;4991469;28;20198;-57
2023/01/03 07:15:51;;;;;;;3.55;0.63;;;;;;;5.57;52.78;96241.41;4991484;28;20564;-56
2023/01/03 07:18:19;;;;;;;4.30;3.15;;;;;;;5.66;52.24;96250.66;4991687;28;20218;-57
2023/01/03 07:20:46;;;;;;;5.00;2.85;;;;;;;5.62;52.51;96252.06;4991305;28;20636;-57
2023/01/03 07:23:13;;;;;;;1.02;1.00;;;;;;;5.73;52.46;96241.91;4991251;28;20673;-57
2023/01/03 07:25:40;;;;;;;2.20;2.00;;;;;;;5.67;52.63;96252.28;4991162;28;20285;-56
2023/01/03 07:28:12;;;;;;;1.88;1.67;;;;;;;5.92;52.21;96261.25;4991635;28;20277;-57
2023/01/03 07:30:41;;;;;;;1.02;1.00;;;;;;;6.03;52.21;96258.09;4990835;28;20332;-55
2023/01/03 07:33:10;;;;;;;1.98;1.27;;;;;;;5.58;53.78;96256.03;4991184;28;20234;-58
2023/01/03 07:35:37;;;;;;;1.67;1.55;;;;;;;5.58;54.13;96254.25;4991070;28;20253;-55
2023/01/03 07:38:04;;;;;;;3.42;1.90;;;;;;;6.00;52.93;96245.47;4991363;28;20206;-58
2023/01/03 07:40:32;;;;;;;1.85;1.33;;;;;;;7.10;51.51;96241.47;4991226;28;20205;-56
2023/01/03 07:45:45;;;;;;;1.63;1.52;;;;;;;7.07;50.58;96253.13;4990907;28;20202;-62
2023/01/03 07:48:12;;;;;;;3.42;3.15;;;;;;;7.08;52.58;96246.91;4990957;28;20293;-59
2023/01/03 07:50:40;;;;;;;1.65;1.55;;;;;;;7.26;50.56;96245.50;4990635;28;20214;-56
2023/01/03 07:53:07;;;;;;;3.38;2.33;;;;;;;7.60;50.62;96250.47;4990650;28;20203;-58
2023/01/03 07:55:35;;;;;;;1.90;1.80;;;;;;;8.03;48.97;96243.72;4990530;28;20236;-56
2023/01/03 07:58:02;;;;;;;1.90;1.80;;;;;;;8.06;49.10;96243.31;4990992;28;20198;-57
2023/01/03 08:00:29;;;;;;;3.25;2.85;;;;;;;8.28;48.91;96239.44;4990320;28;20950;-58
2023/01/03 08:02:56;;;;;;;4.93;3.30;;;;;;;8.02;50.12;96242.94;4990810;28;20634;-57
2023/01/03 08:05:24;;;;;;;1.85;1.75;;;;;;;8.39;49.24;96238.78;4989964;28;20294;-57
2023/01/03 08:07:51;;;;;;;4.00;2.63;;;;;;;8.48;49.84;96242.75;4990595;28;20210;-56
2023/01/03 08:13:17;;;;;;;4.70;3.92;;;;;;;8.73;48.56;96248.84;4990609;28;20218;-60
2023/01/03 08:15:54;;;;;;;4.70;2.35;;;;;;;8.87;48.90;96239.06;4977278;28;20187;-58
2023/01/03 08:18:26;;;;;;;14.63;9.52;;;;;;;9.10;48.56;96237.50;4990165;28;20209;-59
2023/01/03 08:20:55;;;;;;;3.40;3.20;;;;;;;8.87;49.13;96242.50;4990245;28;20213;-59
2023/01/03 08:23:23;;;;;;;7.22;4.22;;;;;;;9.00;49.25;96242.41;4990316;28;20269;-57
2023/01/03 08:25:50;;;;;;;12.18;5.78;;;;;;;9.46;47.80;96246.47;4990375;28;20293;-62
2023/01/03 08:28:17;;;;;;;9.20;5.88;;;;;;;8.52;50.18;96248.38;4990305;28;20282;-59
2023/01/03 08:30:49;;;;;;;6.22;3.60;;;;;;;8.48;50.92;96242.75;4989927;28;20234;-56
2023/01/03 08:33:18;;;;;;;5.22;3.58;;;;;;;8.49;50.34;96244.34;4989867;28;20776;-60
2023/01/03 08:35:49;;;;;;;5.43;4.78;;;;;;;9.05;49.96;96239.94;4988687;28;20264;-57
2023/01/03 08:38:23;;;;;;;4.40;3.65;;;;;;;9.42;49.13;96237.44;4978020;28;20202;-58
2023/01/03 08:40:50;;;;;;;7.00;3.78;;;;;;;9.25;49.05;96242.44;4989739;28;20741;-58
2023/01/03 08:43:17;;;;;;;17.60;8.40;;;;;;;9.66;48.43;96236.59;4989689;28;20286;-60
2023/01/03 08:45:46;;;;;;;20.10;10.13;;;;;;;9.98;48.18;96246.72;4989463;28;20206;-61
2023/01/03 08:48:15;;;;;;;6.20;5.50;;;;;;;10.09;47.39;96237.38;4989837;28;20210;-57
2023/01/03 08:50:42;;;;;;;18.15;11.73;;;;;;;10.05;48.09;96236.19;4989513;28;20707;-58
2023/01/03 08:53:09;;;;;;;12.23;10.95;;;;;;;9.78;48.64;96237.50;4989396;28;20221;-61
2023/01/03 08:55:36;;;;;;;8.63;7.50;;;;;;;10.11;47.93;96232.72;4989305;28;20198;-60
2023/01/03 08:58:03;;;;;;;10.07;8.00;;;;;;;10.14;48.05;96234.91;4989865;28;20226;-59
2023/01/03 09:00:30;;;;;;;13.70;12.20;;;;;;;10.31;47.54;96222.78;4988661;28;20648;-58
2023/01/03 09:02:58;;;;;;;6.40;5.18;;;;;;;10.35;47.66;96226.56;4989692;28;20191;-56
2023/01/03 09:05:26;;;;;;;22.87;13.47;;;;;;;10.66;47.36;96228.97;4988705;28;20226;-57
2023/01/03 09:07:54;;;;;;;14.83;9.07;;;;;;;10.55;46.92;96224.47;4989615;28;20932;-57
2023/01/03 09:10:21;;;;;;;11.83;6.70;;;;;;;10.71;46.77;96215.97;4989283;28;20449;-57
2023/01/03 09:12:49;;;;;;;6.90;6.27;;;;;;;10.51;47.36;96210.22;4989674;28;20438;-58
2023/01/03 09:15:15;;;;;;;4.50;4.13;;;;;;;11.10;46.49;96210.16;4988797;28;20960;-55
2023/01/03 09:17:44;;;;;;;17.07;6.00;;;;;;;11.02;46.46;96207.84;4989463;28;20558;-60
2023/01/03 09:20:12;;;;;;;7.30;6.60;;;;;;;11.63;45.14;96209.25;4988888;28;20450;-56
2023/01/03 09:22:38;;;;;;;9.60;8.03;;;;;;;11.18;46.12;96201.16;4989996;28;20528;-57
2023/01/03 09:25:06;;;;;;;11.27;6.83;;;;;;;11.43;45.22;96195.66;4989045;28;20972;-58
2023/01/03 09:27:33;;;;;;;7.97;7.10;;;;;;;12.02;44.74;96192.78;4989241;28;20446;-58
2023/01/03 09:30:00;;;;;;;8.67;7.10;;;;;;;12.02;44.65;96190.94;4988317;28;21056;-55
2023/01/03 09:32:27;;;;;;;6.40;5.80;;;;;;;12.16;44.32;96186.22;4989263;28;20445;-60
2023/01/03 09:34:54;;;;;;;9.53;5.07;;;;;;;12.35;44.00;96177.13;4988823;28;20568;-60
2023/01/03 09:37:21;;;;;;;12.30;5.20;;;;;;;12.64;43.49;96170.84;4989315;28;20449;-61
2023/01/03 09:39:47;;;;;;;4.50;4.20;;;;;;;12.81;43.40;96171.63;4986439;28;21038;-56
2023/01/03 09:45:15;;;;;;;9.63;5.73;;;;;;;13.39;42.79;96157.31;4989096;28;20524;-60
2023/01/03 09:47:43;;;;;;;6.30;5.77;;;;;;;13.42;41.92;96162.06;4989208;28;20446;-59
2023/01/03 09:50:22;;;;;;;5.63;5.23;;;;;;;13.71;41.99;96145.09;4988957;28;20518;-54
2023/01/03 10:05:16;;;;;;;6.83;6.13;;;;;;;13.52;42.35;96131.41;4980242;28;20887;-57
2023/01/03 10:08:11;;;;;;;10.50;6.80;;;;;;;13.70;42.05;96127.72;4976765;28;20943;-59
2023/01/03 10:11:00;;;;;;;9.90;5.80;;;;;;;13.77;41.90;96125.69;4972654;28;20446;-60
2023/01/03 10:13:35;;;;;;;8.63;6.83;;;;;;;13.64;42.54;96118.13;4990987;28;20896;-53
2023/01/03 10:16:29;;;;;;;7.70;5.37;;;;;;;13.79;42.15;96105.16;4992378;28;20448;-53
2023/01/03 10:19:18;;;;;;;3.83;3.60;;;;;;;13.77;42.00;96109.88;4979675;28;20449;-59
2023/01/03 10:22:17;;;;;;;7.03;4.97;;;;;;;14.03;42.10;96104.63;4992769;28;20445;-60
2023/01/03 10:24:49;;;;;;;6.97;5.40;;;;;;;13.87;41.86;96099.44;4991801;28;20507;-57
2023/01/03 10:27:23;;;;;;;8.20;7.17;;;;;;;13.81;41.88;96092.53;4992177;28;20457;-59
2023/01/03 10:29:59;;;;;;;5.03;3.20;;;;;;;13.78;42.23;96090.38;4991751;28;20469;-60
2023/01/03 10:32:44;;;;;;;10.40;7.93;;;;;;;13.67;42.39;96096.56;4992596;28;20534;-60
2023/01/03 10:35:29;;;;;;;5.80;5.23;;;;;;;13.55;43.33;96082.72;4992001;28;20966;-58
2023/01/03 10:37:57;;;;;;;7.63;5.97;;;;;;;13.46;43.42;96078.94;4992142;28;20452;-60
2023/01/03 10:40:41;;;;;;;6.00;5.20;;;;;;;13.52;42.91;96077.97;4992215;28;20477;-57
2023/01/03 10:43:15;;;;;;;6.10;5.43;;;;;;;13.74;43.20;96065.59;4992360;28;20449;-57
2023/01/03 10:45:59;;;;;;;16.57;8.17;;;;;;;13.77;43.62;96065.09;4991862;28;20456;-58
2023/01/03 10:48:36;;;;;;;2.97;2.67;;;;;;;13.97;42.38;96060.03;4992246;28;20457;-53
2023/01/03 10:51:34;;;;;;;10.17;5.60;;;;;;;13.90;42.19;96059.44;4979419;28;20532;-59
2023/01/03 10:54:22;;;;;;;6.10;5.57;;;;;;;13.89;42.93;96047.28;4992544;28;21010;-60
2023/01/03 10:56:48;;;;;;;4.17;3.77;;;;;;;13.80;43.42;96048.78;4992482;28;20449;-57
2023/01/03 10:59:20;;;;;;;3.57;3.23;;;;;;;13.73;44.28;96038.44;4992052;28;20441;-58
2023/01/03 11:02:11;;;;;;;2.70;2.60;;;;;;;14.04;43.94;96048.25;4991790;28;20462;-59
2023/01/03 11:04:38;;;;;;;1.93;1.83;;;;;;;14.18;43.78;96035.47;4991744;28;20512;-58
2023/01/03 11:07:08;;;;;;;5.43;2.93;;;;;;;14.32;43.79;96041.97;4991860;28;20485;-60
2023/01/03 11:09:56;;;;;;;4.10;2.80;;;;;;;14.20;43.19;96038.66;4991821;28;20536;-59
2023/01/03 11:12:35;;;;;;;5.03;3.60;;;;;;;14.26;42.84;96032.38;4992172;28;20511;-59
2023/01/03 11:15:17;;;;;;;3.70;3.20;;;;;;;14.30;43.61;96030.88;4990815;28;20492;-60
2023/01/03 11:17:54;;;;;;;4.37;3.67;;;;;;;14.40;43.29;96017.75;4992200;28;20551;-58
2023/01/03 11:20:48;;;;;;;4.73;4.30;;;;;;;14.59;43.03;96011.06;4991443;28;20445;-55
2023/01/03 11:23:25;;;;;;;4.57;4.10;;;;;;;14.27;42.98;95997.09;4990288;28;20458;-58
2023/01/03 11:26:15;;;;;;;6.27;4.97;;;;;;;14.52;42.32;95993.88;4990887;28;20453;-59
2023/01/03 11:29:09;;;;;;;2.23;1.90;;;;;;;14.62;41.67;96000.00;4979943;28;20524;-61
2023/01/03 11:31:48;;;;;;;4.50;3.13;;;;;;;14.38;42.88;95990.84;4990664;28;20464;-58
2023/01/03 11:34:43;;;;;;;2.87;2.67;;;;;;;14.93;41.93;95987.78;4990416;28;20477;-54
2023/01/03 11:37:49;;;;;;;1.87;1.77;;;;;;;15.01;42.04;95982.03;4991529;28;20445;-57
2023/01/03 11:40:32;;;;;;;1.67;1.57;;;;;;;15.42;42.16;95972.47;4980236;28;20453;-57
2023/01/03 11:43:11;;;;;;;2.63;2.43;;;;;;;15.61;41.55;95965.66;4990963;28;20475;-60
2023/01/03 11:45:43;;;;;;;5.70;3.40;;;;;;;15.79;42.40;95967.81;4990881;28;20449;-57
2023/01/03 11:48:33;;;;;;;4.17;2.50;;;;;;;15.88;41.66;95963.59;4991153;28;20513;-56
2023/01/03 11:51:27;;;;;;;4.40;4.10;;;;;;;16.06;41.31;95968.38;4990590;28;20442;-59
2023/01/03 11:53:58;;;;;;;2.97;2.60;;;;;;;15.81;40.72;95955.13;4990436;28;20510;-56
2023/01/03 11:56:43;;;;;;;8.20;3.97;;;;;;;16.39;40.77;95952.00;4990645;28;20449;-56
2023/01/03 11:59:35;;;;;;;3.20;2.80;;;;;;;17.33;39.42;95936.16;4990882;28;21041;-55
2023/01/03 12:02:02;;;;;;;4.10;3.47;;;;;;;17.96;36.93;95934.50;4990531;28;20446;-56
2023/01/03 12:04:54;;;;;;;9.73;7.17;;;;;;;18.98;35.79;95931.47;4990937;28;20499;-55
2023/01/03 12:07:53;;;;;;;6.37;3.80;;;;;;;19.87;35.12;95929.84;4990187;28;20454;-56
2023/01/03 12:10:30;;;;;;;3.03;2.83;;;;;;;20.59;33.35;95928.44;4991371;28;20457;-57
2023/01/03 12:13:02;;;;;;;6.13;5.50;;;;;;;21.14;32.85;95930.91;4990685;28;20994;-56
2023/01/03 12:16:08;;;;;;;5.63;5.13;;;;;;;21.59;31.02;95907.84;4989968;28;20512;-59
2023/01/03 12:18:57;;;;;;;6.83;5.70;;;;;;;22.96;29.95;95912.28;4979907;28;20445;-58
2023/01/03 12:21:41;;;;;;;8.87;4.13;;;;;;;23.92;29.80;95913.00;4989966;28;20528;-61
2023/01/03 12:24:40;;;;;;;2.80;2.60;;;;;;;23.54;30.40;95905.88;4990157;28;20454;-57
2023/01/03 12:27:34;;;;;;;3.90;3.53;;;;;;;23.70;29.94;95905.09;4979209;28;20595;-57
2023/01/03 12:30:09;;;;;;;5.77;4.90;;;;;;;23.09;30.48;95906.06;4989589;28;20779;-58
2023/01/03 12:32:48;;;;;;;8.30;5.03;;;;;;;22.36;30.27;95903.13;4990241;28;20209;-60
2023/01/03 12:35:36;;;;;;;12.17;6.00;;;;;;;22.95;29.90;95905.38;4987366;28;20249;-61
2023/01/03 12:38:05;;;;;;;9.07;6.83;;;;;;;23.21;29.24;95908.13;4990065;28;20195;-57
2023/01/03 12:41:00;;;;;;;7.73;5.57;;;;;;;23.86;28.22;95902.75;4989909;28;20226;-58
2023/01/03 12:43:51;;;;;;;5.40;4.60;;;;;;;23.57;28.26;95900.69;4989857;28;20222;-59
2023/01/03 12:46:28;;;;;;;5.43;4.83;;;;;;;23.34;28.19;95898.44;4989752;28;20274;-57
2023/01/03 12:49:04;;;;;;;9.17;5.40;;;;;;;25.02;26.16;95892.50;4990463;28;20714;-60
2023/01/03 12:51:31;;;;;;;5.33;4.43;;;;;;;24.81;26.78;95897.03;4977652;28;20325;-56
2023/01/03 12:54:16;;;;;;;4.97;3.90;;;;;;;25.05;25.71;95894.53;4990573;28;20423;-59
2023/01/03 12:57:12;;;;;;;3.97;3.57;;;;;;;25.24;25.75;95893.34;4990090;28;20338;-56
2023/01/03 12:59:54;;;;;;;5.23;4.07;;;;;;;24.77;26.11;95895.28;4989608;28;20282;-58
2023/01/03 13:02:32;;;;;;;7.53;4.17;;;;;;;25.40;25.84;95875.63;4989708;28;20669;-54
2023/01/03 13:05:18;;;;;;;4.87;4.13;;;;;;;25.66;25.24;95884.28;4989662;28;20340;-58
2023/01/03 13:08:03;;;;;;;6.33;5.73;;;;;;;25.24;26.69;95887.97;4989921;28;20198;-58
2023/01/03 13:10:34;;;;;;;6.17;5.47;;;;;;;24.71;26.09;95897.34;4989641;28;20261;-59